Time;durP1;ratioP1;P1;durP2;ratioP2;P2;SDS_P1;SDS_P2;PMS_P1;PMS_P2;Temp;Humidity;BMP_temperature;BMP_pressure;BME280_temperature;BME280_humidity;BME280_pressure;Samples;Min_cycle;Max_cycle;Signal;HPM_P1;HPM_P2
2022/12/23 00:00:07;;;;;;;53.75;22.85;;;;;;;;;;5008042;28;20049;-78
2022/12/23 00:02:33;;;;;;;50.08;21.75;;;;;;;;;;4994171;28;20053;-77
2022/12/23 00:04:59;;;;;;;62.25;23.08;;;;;;;;;;4995414;28;20048;-77
2022/12/23 00:07:25;;;;;;;59.47;22.20;;;;;;;;;;5012063;28;20076;-78
2022/12/23 00:09:51;;;;;;;79.40;25.25;;;;;;;;;;4995510;28;20057;-78
2022/12/23 00:15:04;;;;;;;95.45;24.42;;;;;;;;;;4994066;28;20112;-78
2022/12/23 00:17:31;;;;;;;66.53;24.92;;;;;;;;;;4979531;28;20054;-78
2022/12/23 00:19:57;;;;;;;66.85;25.50;;;;;;;;;;5013193;28;20082;-77
2022/12/23 00:23:03;;;;;;;63.58;23.75;;;;;;;;;;4992389;28;20077;-78
2022/12/23 00:25:09;;;;;;;83.97;25.80;;;;;;;;;;4997743;28;20060;-78
2022/12/23 00:27:35;;;;;;;70.78;25.02;;;;;;;;;;5011089;28;20138;-78
2022/12/23 00:30:01;;;;;;;97.60;25.48;;;;;;;;;;4996583;28;20046;-78
2022/12/23 00:32:28;;;;;;;93.07;28.42;;;;;;;;;;4995437;28;20053;-78
2022/12/23 00:34:54;;;;;;;81.38;26.73;;;;;;;;;;4995759;28;20079;-78
2022/12/23 00:37:20;;;;;;;92.95;29.58;;;;;;;;;;5008112;28;20102;-78
2022/12/23 00:45:16;;;;;;;115.05;33.35;;;;;;;;;;4997801;28;20085;-78
2022/12/23 00:50:31;;;;;;;118.70;34.03;;;;;;;;;;4995948;28;20054;-78
2022/12/23 00:52:57;;;;;;;109.82;32.65;;;;;;;;;;4998420;28;20121;-78
2022/12/23 00:55:23;;;;;;;143.73;32.40;;;;;;;;;;5016053;28;20046;-77
2022/12/23 00:57:50;;;;;;;138.25;35.28;;;;;;;;;;5010509;28;20061;-77
2022/12/23 01:00:16;;;;;;;139.40;33.50;;;;;;;;;;4998766;28;20068;-78
2022/12/23 01:05:36;;;;;;;187.85;39.33;;;;;;;;;;4998375;28;20049;-78
2022/12/23 01:08:03;;;;;;;154.77;33.53;;;;;;;;;;5016254;28;20046;-77
2022/12/23 01:10:29;;;;;;;145.00;32.97;;;;;;;;;;4998300;28;20184;-77
2022/12/23 01:12:55;;;;;;;107.10;32.00;;;;;;;;;;5015894;28;20074;-78
2022/12/23 01:15:21;;;;;;;117.45;32.05;;;;;;;;;;4998446;28;20057;-78
2022/12/23 01:17:47;;;;;;;119.80;32.90;;;;;;;;;;5015932;28;20049;-77
2022/12/23 01:20:13;;;;;;;80.97;30.45;;;;;;;;;;5015655;28;20427;-77
2022/12/23 01:22:39;;;;;;;103.63;30.17;;;;;;;;;;4981398;28;20057;-77
2022/12/23 01:25:05;;;;;;;94.97;29.63;;;;;;;;;;4998160;28;20440;-77
2022/12/23 01:27:31;;;;;;;109.50;31.67;;;;;;;;;;5013037;28;20045;-77
2022/12/23 01:29:57;;;;;;;93.97;29.45;;;;;;;;;;5015789;28;20045;-77
2022/12/23 01:32:23;;;;;;;83.78;27.75;;;;;;;;;;5015116;28;20069;-77
2022/12/23 01:34:49;;;;;;;90.18;30.00;;;;;;;;;;4994825;28;20129;-77
2022/12/23 01:37:15;;;;;;;95.90;30.05;;;;;;;;;;4987198;28;20200;-77
2022/12/23 01:39:42;;;;;;;100.32;32.60;;;;;;;;;;4983250;28;20037;-77
2022/12/23 01:45:13;;;;;;;101.43;31.52;;;;;;;;;;4986301;28;20062;-78
2022/12/23 01:47:50;;;;;;;95.95;29.33;;;;;;;;;;4997202;28;20458;-78
2022/12/23 01:50:25;;;;;;;85.70;28.15;;;;;;;;;;4998168;28;20045;-78
2022/12/23 01:52:54;;;;;;;115.63;32.87;;;;;;;;;;4997572;28;20049;-78
2022/12/23 01:55:23;;;;;;;97.97;31.90;;;;;;;;;;5014624;28;20129;-78
2022/12/23 01:57:49;;;;;;;86.38;30.77;;;;;;;;;;5015082;28;20042;-78
2022/12/23 02:05:45;;;;;;;90.10;30.85;;;;;;;;;;5002336;28;20049;-77
2022/12/23 02:10:57;;;;;;;104.53;29.98;;;;;;;;;;5012815;28;20049;-77
2022/12/23 02:13:32;;;;;;;87.40;28.55;;;;;;;;;;5014646;28;20045;-77
2022/12/23 02:16:17;;;;;;;99.43;30.80;;;;;;;;;;4997770;28;20050;-77
2022/12/23 02:18:52;;;;;;;94.93;29.75;;;;;;;;;;5014554;28;20034;-77
2022/12/23 02:21:41;;;;;;;80.07;28.35;;;;;;;;;;5002390;28;20148;-78
2022/12/23 02:24:25;;;;;;;88.70;27.98;;;;;;;;;;5014158;28;20443;-77
2022/12/23 02:27:12;;;;;;;74.20;26.40;;;;;;;;;;4996807;28;20391;-77
2022/12/23 02:29:56;;;;;;;71.93;26.75;;;;;;;;;;5013321;28;20593;-77
2022/12/23 02:32:34;;;;;;;116.30;30.52;;;;;;;;;;5013444;28;20049;-77
2022/12/23 02:35:33;;;;;;;74.88;27.17;;;;;;;;;;5014405;28;20042;-77
2022/12/23 02:38:08;;;;;;;67.10;24.85;;;;;;;;;;4984325;28;20104;-77
2022/12/23 02:40:50;;;;;;;84.75;27.08;;;;;;;;;;4997183;28;20478;-77
2022/12/23 02:43:22;;;;;;;75.93;26.77;;;;;;;;;;4994347;28;20057;-77
2022/12/23 02:45:51;;;;;;;81.65;25.10;;;;;;;;;;4997183;28;20447;-77
2022/12/23 02:48:27;;;;;;;70.82;25.60;;;;;;;;;;4995812;28;20053;-77
2022/12/23 02:50:54;;;;;;;105.50;28.95;;;;;;;;;;5010768;28;20049;-77
2022/12/23 02:53:31;;;;;;;72.05;25.38;;;;;;;;;;4996521;28;20194;-77
2022/12/23 02:55:58;;;;;;;81.95;28.13;;;;;;;;;;5013688;28;20518;-77
2022/12/23 02:58:27;;;;;;;94.78;26.98;;;;;;;;;;5013954;28;20490;-77
2022/12/23 03:00:53;;;;;;;71.38;25.73;;;;;;;;;;5013628;28;20521;-77
2022/12/23 03:03:20;;;;;;;82.25;27.67;;;;;;;;;;5002555;28;20050;-77
2022/12/23 03:05:48;;;;;;;88.20;26.83;;;;;;;;;;4981575;28;20100;-77
2022/12/23 03:08:37;;;;;;;68.88;23.77;;;;;;;;;;5012491;28;20080;-78
2022/12/23 03:11:08;;;;;;;73.40;24.15;;;;;;;;;;4996231;28;20057;-77
2022/12/23 03:13:52;;;;;;;88.30;24.17;;;;;;;;;;5013143;28;20517;-77
2022/12/23 03:16:22;;;;;;;70.78;23.30;;;;;;;;;;5022127;28;20077;-77
2022/12/23 03:18:50;;;;;;;70.93;22.73;;;;;;;;;;5012947;28;20085;-77
2022/12/23 03:21:24;;;;;;;68.68;23.15;;;;;;;;;;5013342;28;20117;-77
2022/12/23 03:23:57;;;;;;;64.07;22.25;;;;;;;;;;4993192;28;20113;-78
2022/12/23 03:26:28;;;;;;;83.15;24.00;;;;;;;;;;5009626;28;20053;-77
2022/12/23 03:28:56;;;;;;;65.53;22.25;;;;;;;;;;4996030;28;20434;-77
2022/12/23 03:31:27;;;;;;;65.07;22.65;;;;;;;;;;5019635;28;20038;-77
2022/12/23 03:33:57;;;;;;;76.90;22.05;;;;;;;;;;5012775;28;20048;-77
2022/12/23 03:36:45;;;;;;;64.45;20.77;;;;;;;;;;5013562;28;20057;-77
2022/12/23 03:39:13;;;;;;;67.97;21.48;;;;;;;;;;5013063;28;20100;-77
2022/12/23 03:41:41;;;;;;;62.40;20.85;;;;;;;;;;5013302;28;20038;-77
2022/12/23 03:44:15;;;;;;;85.03;23.55;;;;;;;;;;5025738;28;20172;-77
2022/12/23 03:46:50;;;;;;;76.30;22.27;;;;;;;;;;5021648;28;20076;-77
2022/12/23 03:49:20;;;;;;;67.32;20.70;;;;;;;;;;5010608;28;20042;-77
2022/12/23 03:51:50;;;;;;;77.45;20.58;;;;;;;;;;5013626;28;20046;-77
2022/12/23 03:54:19;;;;;;;72.22;20.98;;;;;;;;;;5021299;28;20040;-77
2022/12/23 03:56:47;;;;;;;68.93;21.13;;;;;;;;;;5015739;28;20044;-77
2022/12/23 03:59:19;;;;;;;73.72;22.55;;;;;;;;;;4997817;28;20053;-77
2022/12/23 04:02:00;;;;;;;76.80;21.85;;;;;;;;;;4998733;28;20478;-77
2022/12/23 04:04:32;;;;;;;70.32;21.00;;;;;;;;;;5001322;28;20042;-78
2022/12/23 04:07:10;;;;;;;78.82;22.00;;;;;;;;;;4981096;28;20057;-78
2022/12/23 04:09:37;;;;;;;74.68;21.20;;;;;;;;;;5015461;28;20049;-77
2022/12/23 04:12:03;;;;;;;63.75;19.92;;;;;;;;;;5019695;28;20037;-78
2022/12/23 04:14:30;;;;;;;67.72;21.00;;;;;;;;;;5011249;28;20557;-77
2022/12/23 04:16:58;;;;;;;94.20;21.48;;;;;;;;;;4991643;28;20074;-77
2022/12/23 04:19:24;;;;;;;81.82;18.63;;;;;;;;;;4993142;28;20458;-77
2022/12/23 04:21:50;;;;;;;80.55;20.23;;;;;;;;;;4998130;28;20194;-77
2022/12/23 04:24:16;;;;;;;64.05;17.25;;;;;;;;;;5013076;28;20377;-78
2022/12/23 04:26:42;;;;;;;69.63;19.67;;;;;;;;;;4984323;28;20049;-78
2022/12/23 04:29:08;;;;;;;64.28;17.38;;;;;;;;;;5014411;28;20050;-77
2022/12/23 04:31:34;;;;;;;92.55;19.63;;;;;;;;;;4997613;28;20078;-77
2022/12/23 04:34:00;;;;;;;82.97;17.83;;;;;;;;;;5004988;28;20085;-77
2022/12/23 04:36:27;;;;;;;91.53;18.05;;;;;;;;;;5001407;28;20050;-77
2022/12/23 04:38:53;;;;;;;68.07;17.80;;;;;;;;;;4991124;28;20141;-77
2022/12/23 04:41:19;;;;;;;77.47;17.60;;;;;;;;;;4986610;28;20054;-77
2022/12/23 04:43:45;;;;;;;90.80;18.58;;;;;;;;;;4991759;28;20139;-77
2022/12/23 04:46:11;;;;;;;81.97;17.92;;;;;;;;;;5011302;28;20046;-77
2022/12/23 04:48:37;;;;;;;74.43;16.70;;;;;;;;;;4982606;28;20049;-77
2022/12/23 04:51:03;;;;;;;63.35;16.95;;;;;;;;;;4999391;28;20387;-77
2022/12/23 04:53:29;;;;;;;63.67;15.77;;;;;;;;;;5007343;28;20041;-77
2022/12/23 04:55:55;;;;;;;52.17;15.82;;;;;;;;;;4981232;28;20129;-76
2022/12/23 04:58:23;;;;;;;70.15;16.10;;;;;;;;;;4992063;28;20046;-77
2022/12/23 05:00:50;;;;;;;78.65;16.42;;;;;;;;;;5001072;28;20050;-77
2022/12/23 05:03:16;;;;;;;63.40;16.27;;;;;;;;;;4987410;28;20058;-77
2022/12/23 05:05:42;;;;;;;58.88;14.95;;;;;;;;;;4982914;28;20120;-77
2022/12/23 05:08:08;;;;;;;51.03;14.05;;;;;;;;;;4988104;28;20058;-77
2022/12/23 05:10:35;;;;;;;42.03;12.98;;;;;;;;;;5006166;28;20045;-77
2022/12/23 05:13:01;;;;;;;43.38;14.57;;;;;;;;;;4982811;28;20078;-77
2022/12/23 05:15:27;;;;;;;62.55;16.17;;;;;;;;;;4988615;28;20113;-77
2022/12/23 05:17:53;;;;;;;51.67;14.20;;;;;;;;;;4974191;28;20050;-77
2022/12/23 05:20:19;;;;;;;46.15;14.00;;;;;;;;;;4997817;28;20057;-77
2022/12/23 05:22:45;;;;;;;56.33;13.57;;;;;;;;;;5007837;28;20050;-77
2022/12/23 05:25:11;;;;;;;46.83;14.70;;;;;;;;;;5002454;28;20053;-77
2022/12/23 05:27:37;;;;;;;35.92;12.13;;;;;;;;;;4994961;28;20137;-77
2022/12/23 05:30:03;;;;;;;42.17;12.65;;;;;;;;;;4991213;28;20129;-77
2022/12/23 05:32:29;;;;;;;45.45;13.00;;;;;;;;;;4986305;28;20042;-77
2022/12/23 05:34:55;;;;;;;36.47;11.63;;;;;;;;;;5009391;28;20046;-77
2022/12/23 05:37:21;;;;;;;45.30;12.60;;;;;;;;;;4994741;28;20048;-78
2022/12/23 05:39:47;;;;;;;43.78;13.60;;;;;;;;;;4991105;28;20042;-77
2022/12/23 05:42:18;;;;;;;42.65;12.82;;;;;;;;;;4991010;28;20179;-77
2022/12/23 05:44:44;;;;;;;39.75;12.43;;;;;;;;;;5008798;28;20050;-78
2022/12/23 05:47:10;;;;;;;44.78;13.05;;;;;;;;;;4994451;28;20506;-78
2022/12/23 05:49:36;;;;;;;35.22;12.27;;;;;;;;;;5001092;28;20391;-77
2022/12/23 05:52:02;;;;;;;34.90;12.15;;;;;;;;;;4998205;28;20076;-78
2022/12/23 05:54:28;;;;;;;39.72;13.35;;;;;;;;;;4992090;28;20046;-78
2022/12/23 05:56:54;;;;;;;45.22;13.57;;;;;;;;;;5007894;28;20042;-78
2022/12/23 05:59:20;;;;;;;35.25;12.40;;;;;;;;;;4984561;28;20121;-78
2022/12/23 06:01:46;;;;;;;38.65;11.82;;;;;;;;;;5002788;28;20070;-77
2022/12/23 06:04:12;;;;;;;38.80;12.75;;;;;;;;;;5003458;28;20034;-78
2022/12/23 06:06:38;;;;;;;37.25;13.10;;;;;;;;;;4950557;28;20097;-78
2022/12/23 06:09:04;;;;;;;45.05;12.45;;;;;;;;;;4990601;28;20051;-78
2022/12/23 06:11:30;;;;;;;37.10;12.13;;;;;;;;;;4995975;28;20133;-78
2022/12/23 06:13:56;;;;;;;45.45;12.13;;;;;;;;;;4995699;28;20141;-78
2022/12/23 06:16:22;;;;;;;40.95;12.27;;;;;;;;;;5017154;28;20100;-78
2022/12/23 06:18:48;;;;;;;35.65;12.20;;;;;;;;;;5015640;28;20053;-78
2022/12/23 06:21:14;;;;;;;43.53;12.77;;;;;;;;;;4997926;28;20394;-78
2022/12/23 06:23:43;;;;;;;39.50;12.02;;;;;;;;;;4998101;28;20045;-78
2022/12/23 06:26:09;;;;;;;36.97;11.00;;;;;;;;;;4997015;28;20066;-78
2022/12/23 06:28:35;;;;;;;52.35;13.45;;;;;;;;;;4993765;28;20063;-78
2022/12/23 06:31:01;;;;;;;36.28;10.80;;;;;;;;;;5014277;28;20042;-78
2022/12/23 06:33:27;;;;;;;45.20;13.15;;;;;;;;;;4980784;28;20049;-77
2022/12/23 06:35:53;;;;;;;42.15;11.75;;;;;;;;;;5013910;28;20058;-78
2022/12/23 06:38:19;;;;;;;37.92;11.13;;;;;;;;;;5000954;28;20046;-77
2022/12/23 06:40:45;;;;;;;29.67;11.40;;;;;;;;;;4996156;28;20046;-77
2022/12/23 06:43:12;;;;;;;30.13;11.05;;;;;;;;;;4980598;28;20064;-78
2022/12/23 06:45:38;;;;;;;32.90;10.95;;;;;;;;;;4996941;28;20120;-78
2022/12/23 06:48:04;;;;;;;32.92;10.60;;;;;;;;;;5014517;28;20121;-78
2022/12/23 06:50:30;;;;;;;30.73;10.73;;;;;;;;;;4996284;28;20042;-78
2022/12/23 06:52:56;;;;;;;35.10;11.10;;;;;;;;;;5012511;28;20050;-78
2022/12/23 06:55:23;;;;;;;31.58;11.00;;;;;;;;;;4987534;28;20077;-78
2022/12/23 06:57:49;;;;;;;30.60;10.75;;;;;;;;;;5000905;28;20073;-78
2022/12/23 07:00:19;;;;;;;35.17;10.75;;;;;;;;;;5012871;28;20046;-78
2022/12/23 07:02:45;;;;;;;33.88;11.13;;;;;;;;;;4999395;28;20055;-78
2022/12/23 07:05:11;;;;;;;32.15;11.27;;;;;;;;;;5017501;28;20053;-77
2022/12/23 07:07:37;;;;;;;32.78;10.90;;;;;;;;;;5001591;28;20038;-78
2022/12/23 07:10:06;;;;;;;34.08;11.25;;;;;;;;;;4978741;28;20101;-78
2022/12/23 07:12:32;;;;;;;36.25;11.18;;;;;;;;;;5009199;28;20052;-78
2022/12/23 07:14:59;;;;;;;33.95;12.02;;;;;;;;;;5013755;28;20077;-78
2022/12/23 07:17:25;;;;;;;28.38;10.45;;;;;;;;;;5014835;28;20162;-79
2022/12/23 07:19:51;;;;;;;38.08;11.38;;;;;;;;;;5008557;28;20050;-78
2022/12/23 07:22:17;;;;;;;40.50;11.85;;;;;;;;;;5018718;28;20046;-80
2022/12/23 07:24:43;;;;;;;34.03;11.55;;;;;;;;;;5019798;28;20084;-80
2022/12/23 07:27:09;;;;;;;36.78;10.93;;;;;;;;;;5015433;28;20068;-79
2022/12/23 07:29:35;;;;;;;36.90;12.02;;;;;;;;;;5019066;28;20041;-79
2022/12/23 07:32:01;;;;;;;31.38;11.65;;;;;;;;;;5024201;28;20046;-79
2022/12/23 07:34:27;;;;;;;36.60;12.00;;;;;;;;;;5027592;28;20473;-79
2022/12/23 07:36:53;;;;;;;32.38;11.45;;;;;;;;;;5018937;28;20100;-79
2022/12/23 07:39:19;;;;;;;36.13;12.65;;;;;;;;;;5000474;28;20092;-79
2022/12/23 07:41:45;;;;;;;30.60;11.63;;;;;;;;;;5016264;28;20502;-79
2022/12/23 07:44:11;;;;;;;39.13;12.63;;;;;;;;;;5010383;28;20050;-79
2022/12/23 07:46:37;;;;;;;38.95;12.00;;;;;;;;;;5017832;28;20042;-79
2022/12/23 07:49:04;;;;;;;32.22;11.43;;;;;;;;;;4999891;28;20125;-79
2022/12/23 07:51:30;;;;;;;34.42;11.73;;;;;;;;;;5019241;28;20136;-80
2022/12/23 07:53:56;;;;;;;35.92;12.35;;;;;;;;;;5031422;28;20049;-79
2022/12/23 07:56:23;;;;;;;35.53;13.23;;;;;;;;;;5017444;28;20402;-79
2022/12/23 07:58:49;;;;;;;32.53;12.10;;;;;;;;;;4999252;28;20505;-79
2022/12/23 08:01:15;;;;;;;35.40;12.35;;;;;;;;;;5018388;28;20177;-79
2022/12/23 08:03:41;;;;;;;35.95;12.10;;;;;;;;;;5020395;28;20057;-79
2022/12/23 08:06:11;;;;;;;34.95;11.85;;;;;;;;;;5020050;28;20426;-79
2022/12/23 08:08:37;;;;;;;36.33;12.05;;;;;;;;;;5020372;28;20078;-79
2022/12/23 08:11:04;;;;;;;32.05;11.80;;;;;;;;;;5019120;28;20395;-79
2022/12/23 08:13:31;;;;;;;29.55;11.38;;;;;;;;;;5018697;28;20045;-79
2022/12/23 08:15:58;;;;;;;29.80;10.75;;;;;;;;;;5019929;28;20045;-79
2022/12/23 08:18:25;;;;;;;28.90;11.55;;;;;;;;;;5016641;28;20146;-79
2022/12/23 08:20:58;;;;;;;35.83;13.25;;;;;;;;;;5001755;28;20398;-79
2022/12/23 08:23:24;;;;;;;28.85;11.30;;;;;;;;;;5018142;28;20081;-79
2022/12/23 08:25:58;;;;;;;32.17;11.27;;;;;;;;;;5003234;28;20101;-79
2022/12/23 08:28:24;;;;;;;43.85;12.98;;;;;;;;;;5019925;28;20045;-81
2022/12/23 08:30:50;;;;;;;27.02;11.45;;;;;;;;;;5010955;28;20046;-79
2022/12/23 08:33:16;;;;;;;34.17;12.15;;;;;;;;;;5017358;28;20470;-79
2022/12/23 08:35:42;;;;;;;37.25;12.80;;;;;;;;;;5015008;28;20038;-78
2022/12/23 08:38:08;;;;;;;35.40;12.80;;;;;;;;;;5012801;28;20042;-78
2022/12/23 08:40:34;;;;;;;32.00;12.02;;;;;;;;;;5006024;28;20058;-79
2022/12/23 08:43:00;;;;;;;36.95;13.38;;;;;;;;;;5012174;28;20042;-82
2022/12/23 08:45:26;;;;;;;30.20;12.48;;;;;;;;;;4980323;28;20105;-81
2022/12/23 08:47:52;;;;;;;38.08;12.80;;;;;;;;;;4999012;28;20085;-80
2022/12/23 08:50:18;;;;;;;31.42;12.55;;;;;;;;;;5016918;28;20046;-79
2022/12/23 08:52:44;;;;;;;41.20;15.00;;;;;;;;;;5011702;28;21779;-79
2022/12/23 08:55:10;;;;;;;28.45;12.18;;;;;;;;;;4999008;28;20513;-79
2022/12/23 08:57:36;;;;;;;32.42;11.55;;;;;;;;;;5016062;28;20413;-79
2022/12/23 09:00:03;;;;;;;22.50;10.77;;;;;;;;;;5004337;28;20054;-78
2022/12/23 09:02:29;;;;;;;38.88;12.65;;;;;;;;;;4997369;28;20053;-79
2022/12/23 09:04:55;;;;;;;31.20;11.20;;;;;;;;;;5008166;28;20049;-79
2022/12/23 09:07:21;;;;;;;26.48;10.80;;;;;;;;;;4985031;28;20046;-79
2022/12/23 09:09:47;;;;;;;28.92;10.77;;;;;;;;;;5015307;28;20614;-78
2022/12/23 09:12:13;;;;;;;25.02;10.95;;;;;;;;;;5012978;28;20058;-78
2022/12/23 09:14:39;;;;;;;25.38;10.40;;;;;;;;;;5012211;28;20135;-79
2022/12/23 09:17:05;;;;;;;29.25;10.55;;;;;;;;;;5014227;28;20045;-82
2022/12/23 09:19:31;;;;;;;23.35;9.00;;;;;;;;;;4998715;28;20049;-82
2022/12/23 09:21:57;;;;;;;25.08;10.70;;;;;;;;;;4999387;28;20050;-82
2022/12/23 09:24:23;;;;;;;27.42;10.52;;;;;;;;;;5012307;28;20168;-81
2022/12/23 09:26:49;;;;;;;24.65;10.77;;;;;;;;;;5021097;28;20063;-81
2022/12/23 09:29:16;;;;;;;22.15;11.18;;;;;;;;;;5023906;28;20045;-81
2022/12/23 09:31:42;;;;;;;24.77;10.70;;;;;;;;;;5024770;28;20052;-81
2022/12/23 09:34:10;;;;;;;25.60;11.45;;;;;;;;;;5025215;28;20049;-81
2022/12/23 09:36:36;;;;;;;28.48;11.02;;;;;;;;;;5032906;28;20046;-80
2022/12/23 09:39:02;;;;;;;28.98;11.80;;;;;;;;;;5013692;28;20510;-81
2022/12/23 09:41:28;;;;;;;26.25;11.80;;;;;;;;;;5005286;28;20128;-81
2022/12/23 09:44:13;;;;;;;27.42;11.93;;;;;;;;;;5017346;28;20135;-81
2022/12/23 09:46:44;;;;;;;26.05;11.98;;;;;;;;;;5001951;28;20493;-81
2022/12/23 09:49:12;;;;;;;25.13;10.75;;;;;;;;;;5011049;28;20072;-81
2022/12/23 09:51:41;;;;;;;20.38;8.82;;;;;;;;;;5012728;28;20105;-80
2022/12/23 09:54:17;;;;;;;18.30;9.27;;;;;;;;;;5020763;28;20037;-81
2022/12/23 09:56:43;;;;;;;;;;;;;;;;;;5004137;28;20080;-81
2022/12/23 09:59:39;;;;;;;19.07;9.90;;;;;;;;;;5012638;28;19925;-81
2022/12/23 10:02:05;;;;;;;21.05;9.68;;;;;;;;;;4959625;29;20467;-81
2022/12/23 10:04:37;;;;;;;21.77;10.75;;;;;;;;;;4940001;29;20052;-81
2022/12/23 10:07:03;;;;;;;20.45;9.70;;;;;;;;;;4941082;29;20072;-81
2022/12/23 10:09:31;;;;;;;20.58;9.77;;;;;;;;;;4940196;29;20054;-81
2022/12/23 10:11:57;;;;;;;23.23;9.43;;;;;;;;;;4940859;29;20062;-81
2022/12/23 10:14:27;;;;;;;26.02;10.60;;;;;;;;;;4948708;29;20055;-81
2022/12/23 10:16:58;;;;;;;25.13;10.73;;;;;;;;;;4943020;29;20531;-81
2022/12/23 10:19:28;;;;;;;22.38;10.27;;;;;;;;;;4965809;28;20054;-81
2022/12/23 10:21:59;;;;;;;19.83;10.52;;;;;;;;;;4973394;28;20534;-81
2022/12/23 10:24:27;;;;;;;22.90;10.82;;;;;;;;;;4957862;28;20043;-81
2022/12/23 10:26:56;;;;;;;25.02;11.15;;;;;;;;;;4956455;29;20046;-81
2022/12/23 10:29:23;;;;;;;24.45;11.50;;;;;;;;;;4955419;29;20559;-81
2022/12/23 10:31:49;;;;;;;22.25;11.27;;;;;;;;;;4955585;29;20075;-81
2022/12/23 10:34:38;;;;;;;19.60;10.75;;;;;;;;;;4956090;29;20126;-81
2022/12/23 10:37:19;;;;;;;21.58;10.13;;;;;;;;;;4948344;28;20079;-81
2022/12/23 10:40:01;;;;;;;17.95;10.02;;;;;;;;;;5009252;28;20049;-81
2022/12/23 10:42:48;;;;;;;17.92;9.35;;;;;;;;;;5005885;28;20438;-81
2022/12/23 10:45:21;;;;;;;19.48;10.15;;;;;;;;;;5000362;28;20524;-81
2022/12/23 10:48:04;;;;;;;18.15;9.52;;;;;;;;;;4997606;28;20050;-81
2022/12/23 10:50:30;;;;;;;18.02;9.30;;;;;;;;;;5006227;28;20049;-81
2022/12/23 10:52:58;;;;;;;21.70;9.35;;;;;;;;;;5009162;28;20088;-81
2022/12/23 10:55:27;;;;;;;22.67;10.43;;;;;;;;;;4997912;28;20050;-81
2022/12/23 10:57:53;;;;;;;17.83;9.70;;;;;;;;;;4998637;28;20047;-81
2022/12/23 11:00:22;;;;;;;20.52;9.90;;;;;;;;;;5002115;28;20069;-81
2022/12/23 11:02:51;;;;;;;16.92;9.05;;;;;;;;;;5018337;28;20048;-81
2022/12/23 11:05:21;;;;;;;15.77;8.77;;;;;;;;;;5018146;28;20061;-81
2022/12/23 11:07:47;;;;;;;17.67;8.70;;;;;;;;;;5004875;28;20109;-81
2022/12/23 11:10:21;;;;;;;15.90;8.35;;;;;;;;;;4998436;28;20054;-81
2022/12/23 11:12:48;;;;;;;15.63;8.70;;;;;;;;;;5007935;28;20041;-81
2022/12/23 11:15:37;;;;;;;14.52;8.45;;;;;;;;;;5020769;28;20092;-79
2022/12/23 11:18:16;;;;;;;14.35;8.85;;;;;;;;;;5009651;28;20038;-80
2022/12/23 11:20:44;;;;;;;22.75;9.18;;;;;;;;;;4985522;28;20058;-82
2022/12/23 11:23:23;;;;;;;16.55;8.32;;;;;;;;;;4998297;28;20073;-82
2022/12/23 11:26:19;;;;;;;15.63;8.48;;;;;;;;;;5012636;28;20038;-82
2022/12/23 11:28:49;;;;;;;19.85;8.50;;;;;;;;;;5014033;28;20100;-81
2022/12/23 11:31:23;;;;;;;13.43;7.93;;;;;;;;;;5019271;28;20068;-81
2022/12/23 11:33:58;;;;;;;17.33;8.00;;;;;;;;;;5012581;28;20104;-82
2022/12/23 11:36:26;;;;;;;15.95;7.38;;;;;;;;;;5008123;28;20046;-82
2022/12/23 11:39:01;;;;;;;17.58;7.40;;;;;;;;;;5008803;28;21216;-81
2022/12/23 11:41:28;;;;;;;15.27;7.68;;;;;;;;;;4999554;28;20486;-81
2022/12/23 11:44:00;;;;;;;15.15;8.00;;;;;;;;;;5007248;28;20490;-81
2022/12/23 11:46:32;;;;;;;14.93;7.50;;;;;;;;;;5010463;28;20038;-81
2022/12/23 11:49:14;;;;;;;13.77;8.10;;;;;;;;;;5024575;28;20053;-81
2022/12/23 11:51:40;;;;;;;13.40;7.78;;;;;;;;;;5023300;28;20045;-81
2022/12/23 11:54:14;;;;;;;17.13;7.20;;;;;;;;;;4995288;28;20050;-82
2022/12/23 11:56:41;;;;;;;14.35;7.95;;;;;;;;;;5021316;28;20045;-81
2022/12/23 11:59:09;;;;;;;17.90;7.80;;;;;;;;;;4987385;28;20378;-80
2022/12/23 12:01:36;;;;;;;16.95;7.65;;;;;;;;;;5009392;28;20483;-81
2022/12/23 12:04:08;;;;;;;16.92;7.88;;;;;;;;;;5008104;28;20060;-81
2022/12/23 12:06:35;;;;;;;14.40;8.13;;;;;;;;;;5017053;28;20038;-81
2022/12/23 12:09:04;;;;;;;15.40;7.65;;;;;;;;;;5019201;28;20130;-81
2022/12/23 12:11:37;;;;;;;17.35;7.60;;;;;;;;;;5018614;28;20467;-81
2022/12/23 12:14:04;;;;;;;13.63;7.68;;;;;;;;;;5001695;28;20058;-81
2022/12/23 12:16:30;;;;;;;15.13;7.60;;;;;;;;;;5011320;28;20058;-81
2022/12/23 12:19:04;;;;;;;13.52;7.82;;;;;;;;;;5010458;28;20047;-81
2022/12/23 12:21:34;;;;;;;17.00;7.95;;;;;;;;;;5013338;28;20382;-82
2022/12/23 12:24:05;;;;;;;17.33;8.07;;;;;;;;;;5024284;28;20050;-82
2022/12/23 12:26:33;;;;;;;14.32;7.80;;;;;;;;;;5026513;28;20073;-82
2022/12/23 12:29:17;;;;;;;13.70;7.80;;;;;;;;;;5043372;28;20049;-82
2022/12/23 12:31:47;;;;;;;13.43;8.60;;;;;;;;;;5024111;28;20120;-82
2022/12/23 12:34:31;;;;;;;14.23;7.25;;;;;;;;;;5022153;28;20038;-82
2022/12/23 12:37:01;;;;;;;13.85;7.32;;;;;;;;;;5022423;28;20414;-82
2022/12/23 12:39:30;;;;;;;14.82;7.40;;;;;;;;;;5022793;28;20504;-82
2022/12/23 12:41:59;;;;;;;11.82;7.25;;;;;;;;;;5023238;28;20050;-82
2022/12/23 12:44:41;;;;;;;11.75;6.80;;;;;;;;;;5021900;28;20108;-82
2022/12/23 12:47:16;;;;;;;15.10;7.25;;;;;;;;;;5022027;28;20525;-82
2022/12/23 12:49:50;;;;;;;12.82;7.03;;;;;;;;;;5024392;28;20077;-82
2022/12/23 12:52:20;;;;;;;14.40;7.55;;;;;;;;;;5024002;28;20069;-82
2022/12/23 12:54:46;;;;;;;10.82;6.20;;;;;;;;;;4994118;28;20050;-82
2022/12/23 12:57:14;;;;;;;13.35;6.97;;;;;;;;;;5006929;28;20051;-82
2022/12/23 12:59:41;;;;;;;14.60;7.38;;;;;;;;;;5024774;28;20506;-82
2022/12/23 13:02:07;;;;;;;13.98;7.55;;;;;;;;;;5016031;28;20041;-82
2022/12/23 13:04:52;;;;;;;13.57;7.60;;;;;;;;;;5023934;28;20073;-82
2022/12/23 13:07:23;;;;;;;15.50;8.07;;;;;;;;;;5023684;28;20089;-82
2022/12/23 13:09:52;;;;;;;19.90;9.13;;;;;;;;;;5034994;28;20440;-82
2022/12/23 13:12:18;;;;;;;15.98;9.02;;;;;;;;;;5042536;28;20044;-81
2022/12/23 13:14:57;;;;;;;19.40;10.05;;;;;;;;;;5023981;28;20054;-81
2022/12/23 13:17:26;;;;;;;23.20;10.70;;;;;;;;;;5005510;28;20050;-81
2022/12/23 13:20:00;;;;;;;21.80;10.10;;;;;;;;;;5004501;28;20482;-81
2022/12/23 13:22:28;;;;;;;18.60;10.35;;;;;;;;;;5021977;28;20061;-81
2022/12/23 13:25:13;;;;;;;23.25;11.98;;;;;;;;;;5021258;28;20371;-81
2022/12/23 13:28:01;;;;;;;25.85;12.73;;;;;;;;;;5004205;28;20050;-81
2022/12/23 13:30:31;;;;;;;23.90;11.52;;;;;;;;;;5017750;28;20402;-81
2022/12/23 13:32:58;;;;;;;24.52;11.90;;;;;;;;;;5021488;28;20077;-81
2022/12/23 13:35:40;;;;;;;27.50;12.88;;;;;;;;;;5021262;28;20616;-82
2022/12/23 13:38:09;;;;;;;27.45;11.93;;;;;;;;;;5006362;28;20049;-81
2022/12/23 13:41:05;;;;;;;25.92;11.68;;;;;;;;;;5025986;28;20050;-82
2022/12/23 13:43:58;;;;;;;26.05;11.90;;;;;;;;;;4969676;28;20076;-81
2022/12/23 13:46:44;;;;;;;25.45;11.20;;;;;;;;;;4999249;28;20114;-81
2022/12/23 13:49:29;;;;;;;25.38;11.68;;;;;;;;;;4972995;28;20058;-82
2022/12/23 13:51:58;;;;;;;21.77;10.00;;;;;;;;;;5013005;28;20052;-81
2022/12/23 13:54:24;;;;;;;21.80;10.18;;;;;;;;;;5003302;28;20038;-82
2022/12/23 13:57:00;;;;;;;21.25;8.90;;;;;;;;;;5021195;28;20048;-82
2022/12/23 13:59:37;;;;;;;14.88;6.72;;;;;;;;;;5017863;28;20042;-81
2022/12/23 14:02:03;;;;;;;14.00;7.03;;;;;;;;;;5018025;28;20049;-81
2022/12/23 14:04:48;;;;;;;14.27;6.55;;;;;;;;;;5019033;28;20473;-81
2022/12/23 14:07:19;;;;;;;12.88;6.53;;;;;;;;;;5025416;28;20078;-81
2022/12/23 14:09:48;;;;;;;11.80;6.57;;;;;;;;;;5018743;28;20105;-81
2022/12/23 14:12:20;;;;;;;11.23;5.30;;;;;;;;;;5025860;28;20044;-81
2022/12/23 14:14:54;;;;;;;8.18;4.50;;;;;;;;;;5023520;28;20086;-81
2022/12/23 14:17:24;;;;;;;10.23;4.30;;;;;;;;;;5027222;28;20117;-81
2022/12/23 14:19:56;;;;;;;7.78;4.10;;;;;;;;;;5024934;28;20054;-81
2022/12/23 14:22:22;;;;;;;6.43;4.20;;;;;;;;;;5026458;28;20527;-82
2022/12/23 14:24:51;;;;;;;7.82;4.30;;;;;;;;;;5020033;28;20116;-81
2022/12/23 14:27:20;;;;;;;8.65;3.67;;;;;;;;;;5031067;28;20044;-82
2022/12/23 14:29:52;;;;;;;8.07;4.00;;;;;;;;;;5032317;28;20048;-82
2022/12/23 14:32:25;;;;;;;7.22;3.35;;;;;;;;;;5025626;28;20049;-82
2022/12/23 14:35:23;;;;;;;10.90;3.28;;;;;;;;;;5012109;28;20042;-82
2022/12/23 14:38:15;;;;;;;5.60;2.72;;;;;;;;;;4995253;28;20050;-82
2022/12/23 14:40:41;;;;;;;5.18;2.55;;;;;;;;;;5022642;28;20046;-81
2022/12/23 14:43:26;;;;;;;4.85;2.40;;;;;;;;;;5020572;28;20052;-80
2022/12/23 14:45:53;;;;;;;3.95;2.40;;;;;;;;;;4996079;28;20506;-78
2022/12/23 14:48:34;;;;;;;4.65;2.17;;;;;;;;;;5022758;28;20041;-77
2022/12/23 14:51:01;;;;;;;6.75;2.33;;;;;;;;;;4995649;28;20086;-77
2022/12/23 14:53:28;;;;;;;5.47;2.42;;;;;;;;;;5003789;28;20068;-78
2022/12/23 14:56:09;;;;;;;6.93;2.25;;;;;;;;;;5018373;28;20121;-78
2022/12/23 14:58:51;;;;;;;7.30;2.67;;;;;;;;;;5033554;28;20172;-79
2022/12/23 15:01:36;;;;;;;8.35;2.72;;;;;;;;;;5008115;28;20452;-79